createdAt,value
2022-11-20T00:01:18.303Z,99702.99
2022-11-20T00:03:45.938Z,99700.38
2022-11-20T00:06:18.120Z,99694.19
2022-11-20T00:08:45.447Z,99696.66
2022-11-20T00:11:16.170Z,99694.79
2022-11-20T00:13:44.665Z,99695.51
2022-11-20T00:16:15.889Z,99693.04
2022-11-20T00:18:45.535Z,99690.54
2022-11-20T00:21:14.333Z,99693.17
2022-11-20T00:23:41.668Z,99689.80
2022-11-20T00:26:10.904Z,99691.13
2022-11-20T00:28:37.540Z,99685.98
2022-11-20T00:31:09.680Z,99685.93
2022-11-20T00:33:36.345Z,99689.60
2022-11-20T00:36:07.163Z,99687.56
2022-11-20T00:38:34.297Z,99688.86
2022-11-20T00:41:03.753Z,99687.64
2022-11-20T00:43:30.229Z,99692.73
2022-11-20T00:46:04.232Z,99691.69
2022-11-20T00:48:30.952Z,99688.05
2022-11-20T00:50:58.103Z,99686.66
2022-11-20T00:53:24.670Z,99686.95
2022-11-20T00:56:05.846Z,99687.98
2022-11-20T00:58:34.338Z,99686.74
2022-11-20T01:01:03.328Z,99689.81
2022-11-20T01:03:32.877Z,99687.38
2022-11-20T01:06:07.662Z,99682.77
2022-11-20T01:08:35.553Z,99685.66
2022-11-20T01:11:03.899Z,99685.95
2022-11-20T01:13:37.268Z,99689.15
2022-11-20T01:16:31.643Z,99685.80
2022-11-20T01:19:00.043Z,99683.41
2022-11-20T01:21:34.352Z,99687.13
2022-11-20T01:24:01.918Z,99687.79
2022-11-20T01:26:31.220Z,99682.36
2022-11-20T01:28:58.895Z,99679.38
2022-11-20T01:31:26.836Z,99679.18
2022-11-20T01:33:54.840Z,99682.10
2022-11-20T01:36:23.115Z,99681.33
2022-11-20T01:38:54.343Z,99684.06
2022-11-20T01:41:38.376Z,99680.10
2022-11-20T01:44:05.892Z,99682.64
2022-11-20T01:47:00.951Z,99681.29
2022-11-20T01:49:46.736Z,99679.61
2022-11-20T01:52:28.021Z,99678.09
2022-11-20T01:55:35.304Z,99681.61
2022-11-20T01:58:02.866Z,99677.48
2022-11-20T02:00:29.177Z,99676.82
2022-11-20T02:02:59.189Z,99678.04
2022-11-20T02:05:44.796Z,99675.98
2022-11-20T02:08:12.145Z,99672.59
2022-11-20T02:10:38.482Z,99672.23
2022-11-20T02:13:21.515Z,99667.55
2022-11-20T02:15:48.752Z,99671.75
2022-11-20T02:18:19.011Z,99671.20
2022-11-20T02:20:48.532Z,99672.10
2022-11-20T02:23:51.037Z,99663.95
2022-11-20T02:26:19.937Z,99661.56
2022-11-20T02:28:46.226Z,99656.00
2022-11-20T02:31:12.486Z,99663.65
2022-11-20T02:33:38.750Z,99660.05
2022-11-20T02:36:05.474Z,99668.20
2022-11-20T02:38:31.905Z,99665.95
2022-11-20T02:40:58.166Z,99666.76
2022-11-20T02:43:24.453Z,99668.80
2022-11-20T02:45:50.751Z,99666.14
2022-11-20T02:48:17.006Z,99664.91
2022-11-20T02:50:43.355Z,99665.23
2022-11-20T02:53:09.706Z,99663.63
2022-11-20T02:55:36.489Z,99663.35
2022-11-20T02:58:03.033Z,99661.17
2022-11-20T03:00:29.341Z,99660.33
2022-11-20T03:02:55.671Z,99660.26
2022-11-20T03:05:21.947Z,99658.80
2022-11-20T03:07:48.235Z,99660.80
2022-11-20T03:10:14.661Z,99658.32
2022-11-20T03:12:40.990Z,99656.52
2022-11-20T03:15:07.820Z,99652.80
2022-11-20T03:17:34.062Z,99653.17
2022-11-20T03:20:00.376Z,99651.45
2022-11-20T03:22:30.250Z,99651.34
2022-11-20T03:24:56.549Z,99656.70
2022-11-20T03:27:22.848Z,99659.64
2022-11-20T03:29:49.085Z,99660.22
2022-11-20T03:32:15.345Z,99663.17
2022-11-20T03:34:41.591Z,99667.38
2022-11-20T03:37:07.905Z,99662.98
2022-11-20T03:39:34.201Z,99662.75
2022-11-20T03:42:00.458Z,99658.54
2022-11-20T03:44:26.749Z,99656.54
2022-11-20T03:46:53.065Z,99649.71
2022-11-20T03:49:19.799Z,99648.52
2022-11-20T03:51:46.488Z,99643.32
2022-11-20T03:54:12.748Z,99642.73
2022-11-20T03:56:39.796Z,99643.79
2022-11-20T03:59:06.591Z,99640.44
2022-11-20T04:01:38.718Z,99640.54
2022-11-20T04:04:05.141Z,99642.73
2022-11-20T04:06:37.293Z,99643.81
2022-11-20T04:09:04.695Z,99642.51
2022-11-20T04:11:33.854Z,99639.77
2022-11-20T04:14:02.471Z,99638.58
2022-11-20T04:16:34.705Z,99634.13
2022-11-20T04:19:03.328Z,99632.55
2022-11-20T04:21:29.620Z,99634.96
2022-11-20T04:23:56.566Z,99640.45
2022-11-20T04:26:25.684Z,99637.59
2022-11-20T04:28:52.210Z,99635.35
2022-11-20T04:31:22.451Z,99636.31
2022-11-20T04:33:49.851Z,99633.40
2022-11-20T04:36:17.376Z,99632.42
2022-11-20T04:38:43.872Z,99630.11
2022-11-20T04:41:18.958Z,99629.72
2022-11-20T04:43:50.782Z,99635.66
2022-11-20T04:46:18.786Z,99635.55
2022-11-20T04:48:45.119Z,99635.55
2022-11-20T04:51:12.623Z,99638.52
2022-11-20T04:53:40.620Z,99635.56
2022-11-20T04:56:09.303Z,99631.05
2022-11-20T04:58:35.724Z,99632.55
2022-11-20T05:01:07.975Z,99631.27
2022-11-20T05:03:37.386Z,99631.83
2022-11-20T05:06:09.448Z,99636.13
2022-11-20T05:08:35.897Z,99631.25
2022-11-20T05:11:14.501Z,99630.73
2022-11-20T05:13:41.682Z,99627.15
2022-11-20T05:16:14.307Z,99626.73
2022-11-20T05:18:41.810Z,99625.07
2022-11-20T05:21:09.778Z,99628.12
2022-11-20T05:23:36.922Z,99621.69
2022-11-20T05:26:04.563Z,99627.52
2022-11-20T05:28:32.275Z,99626.63
2022-11-20T05:31:07.207Z,99627.39
2022-11-20T05:33:35.027Z,99626.52
2022-11-20T05:36:02.985Z,99624.91
2022-11-20T05:38:29.350Z,99621.33
2022-11-20T05:40:55.649Z,99622.57
2022-11-20T05:43:21.988Z,99617.75
2022-11-20T05:45:54.578Z,99614.73
2022-11-20T05:48:21.304Z,99608.35
2022-11-20T05:50:48.638Z,99608.85
2022-11-20T05:53:14.959Z,99606.02
2022-11-20T05:55:41.226Z,99606.83
2022-11-20T05:58:07.806Z,99603.35
2022-11-20T06:00:35.586Z,99604.79
2022-11-20T06:03:02.263Z,99603.17
2022-11-20T06:05:28.703Z,99606.73
2022-11-20T06:07:54.950Z,99607.19
2022-11-20T06:10:21.224Z,99598.46
2022-11-20T06:12:47.621Z,99591.63
2022-11-20T06:15:14.019Z,99586.59
2022-11-20T06:17:40.271Z,99586.91
2022-11-20T06:20:07.162Z,99591.98
2022-11-20T06:22:33.476Z,99588.32
2022-11-20T06:24:59.726Z,99584.95
2022-11-20T06:27:27.113Z,99583.67
2022-11-20T06:29:53.354Z,99586.08
2022-11-20T06:32:19.686Z,99589.73
2022-11-20T06:34:45.958Z,99592.17
2022-11-20T06:37:12.258Z,99591.98
2022-11-20T06:39:38.568Z,99598.98
2022-11-20T06:42:04.928Z,99597.08
2022-11-20T06:44:31.190Z,99598.92
2022-11-20T06:46:57.429Z,99591.98
2022-11-20T06:49:24.152Z,99594.48
2022-11-20T06:51:50.797Z,99594.52
2022-11-20T06:54:17.113Z,99595.44
2022-11-20T06:56:48.188Z,99589.45
2022-11-20T06:59:14.974Z,99590.92
2022-11-20T07:01:41.493Z,99585.77
2022-11-20T07:04:07.902Z,99585.56
2022-11-20T07:06:34.167Z,99581.91
2022-11-20T07:09:00.430Z,99582.96
2022-11-20T07:11:26.719Z,99583.64
2022-11-20T07:13:53.068Z,99583.61
2022-11-20T07:16:19.364Z,99584.48
2022-11-20T07:18:50.177Z,99583.54
2022-11-20T07:21:17.278Z,99582.88
2022-11-20T07:23:43.572Z,99581.61
2022-11-20T07:26:11.198Z,99576.77
2022-11-20T07:28:37.967Z,99578.34
2022-11-20T07:31:05.213Z,99579.58
2022-11-20T07:33:31.599Z,99579.78
2022-11-20T07:36:01.752Z,99577.73
2022-11-20T07:38:28.829Z,99575.76
2022-11-20T07:40:58.774Z,99575.05
2022-11-20T07:43:25.465Z,99577.12
2022-11-20T07:45:51.743Z,99592.45
2022-11-20T07:48:18.007Z,99593.30
2022-11-20T07:50:44.280Z,99595.63
2022-11-20T07:53:10.558Z,99588.27
2022-11-20T07:55:36.794Z,99587.40
2022-11-20T07:58:03.115Z,99584.22
2022-11-20T08:00:29.590Z,99586.63
2022-11-20T08:02:56.322Z,99574.79
2022-11-20T08:05:22.582Z,99575.54
2022-11-20T08:07:49.582Z,99572.06
2022-11-20T08:10:16.434Z,99575.63
2022-11-20T08:13:07.123Z,99578.34
2022-11-20T08:15:34.209Z,99577.84
2022-11-20T08:18:30.174Z,99572.73
2022-11-20T08:20:55.521Z,99570.73
2022-11-20T08:23:23.219Z,99570.23
2022-11-20T08:25:51.126Z,99568.64
2022-11-20T08:28:21.206Z,99569.06
2022-11-20T08:30:50.038Z,99565.77
2022-11-20T08:33:17.493Z,99560.23
2022-11-20T08:35:44.048Z,99560.44
2022-11-20T08:38:10.298Z,99559.25
2022-11-20T08:40:36.619Z,99558.31
2022-11-20T08:43:02.899Z,99561.36
2022-11-20T08:45:33.639Z,99561.53
2022-11-20T08:48:03.054Z,99561.09
2022-11-20T08:50:31.859Z,99554.20
2022-11-20T08:53:05.690Z,99551.46
2022-11-20T08:55:33.113Z,99548.95
2022-11-20T08:58:04.202Z,99545.80
2022-11-20T09:00:30.572Z,99539.20
2022-11-20T09:02:58.743Z,99538.84
2022-11-20T09:05:25.042Z,99538.20
2022-11-20T09:07:51.579Z,99540.83
2022-11-20T09:10:25.369Z,99542.77
2022-11-20T09:12:55.255Z,99541.98
2022-11-20T09:15:22.793Z,99542.69
2022-11-20T09:17:53.328Z,99545.24
2022-11-20T09:20:19.657Z,99544.50
2022-11-20T09:22:45.978Z,99542.45
2022-11-20T09:25:12.231Z,99539.29
2022-11-20T09:27:38.551Z,99536.50
2022-11-20T09:30:05.606Z,99534.80
2022-11-20T09:32:31.953Z,99533.20
2022-11-20T09:34:58.200Z,99527.55
2022-11-20T09:37:24.477Z,99518.05
2022-11-20T09:39:50.812Z,99516.77
2022-11-20T09:42:59.177Z,99514.33
2022-11-20T09:45:41.431Z,99518.98
2022-11-20T09:48:40.739Z,99518.48
2022-11-20T09:51:37.020Z,99518.53
2022-11-20T09:54:20.796Z,99518.10
2022-11-20T09:56:55.345Z,99520.85
2022-11-20T09:59:27.546Z,99517.08
2022-11-20T10:01:55.893Z,99512.23
2022-11-20T10:04:23.319Z,99508.20
2022-11-20T10:07:31.549Z,99508.10
2022-11-20T10:09:58.824Z,99503.73
2022-11-20T10:12:45.765Z,99498.34
2022-11-20T10:15:21.717Z,99502.48
2022-11-20T10:17:50.722Z,99498.56
2022-11-20T10:20:34.639Z,99499.45
2022-11-20T10:23:38.897Z,99503.78
2022-11-20T10:26:47.389Z,99504.70
2022-11-20T10:29:17.110Z,99504.64
2022-11-20T10:32:00.451Z,99505.63
2022-11-20T10:34:38.996Z,99510.05
2022-11-20T10:37:35.326Z,99505.48
2022-11-20T10:40:17.515Z,99510.73
2022-11-20T10:42:56.339Z,99509.01
2022-11-20T10:45:25.755Z,99506.96
2022-11-20T10:47:57.241Z,99503.96
2022-11-20T10:50:23.692Z,99501.77
2022-11-20T10:53:05.071Z,99498.60
2022-11-20T10:55:50.924Z,99499.73
2022-11-20T10:58:29.128Z,99503.79
2022-11-20T11:01:15.804Z,99503.45
2022-11-20T11:03:43.792Z,99498.94
2022-11-20T11:06:42.096Z,99493.50
2022-11-20T11:09:23.706Z,99488.91
2022-11-20T11:11:50.447Z,99491.45
2022-11-20T11:14:16.732Z,99486.69
2022-11-20T11:16:59.435Z,99482.86
2022-11-20T11:19:26.121Z,99478.91
2022-11-20T11:21:56.707Z,99477.02
2022-11-20T11:24:43.926Z,99478.52
2022-11-20T11:27:17.174Z,99476.68
2022-11-20T11:29:45.712Z,99476.46
2022-11-20T11:32:20.952Z,99475.76
2022-11-20T11:35:05.080Z,99476.02
2022-11-20T11:37:36.116Z,99468.55
2022-11-20T11:40:23.354Z,99473.83
2022-11-20T11:42:56.196Z,99464.73
2022-11-20T11:45:22.711Z,99465.06
2022-11-20T11:47:51.865Z,99464.25
2022-11-20T11:50:20.431Z,99458.77
2022-11-20T11:53:03.789Z,99461.77
2022-11-20T11:55:38.148Z,99463.44
2022-11-20T11:58:36.402Z,99455.04
2022-11-20T12:01:34.421Z,99453.59
2022-11-20T12:04:18.864Z,99446.98
2022-11-20T12:06:50.465Z,99448.27
2022-11-20T12:09:19.524Z,99448.52
2022-11-20T12:11:49.949Z,99447.61
2022-11-20T12:14:27.881Z,99450.70
2022-11-20T12:16:57.787Z,99448.58
2022-11-20T12:19:24.957Z,99444.13
2022-11-20T12:22:06.358Z,99443.33
2022-11-20T12:25:06.988Z,99437.84
2022-11-20T12:27:41.991Z,99434.61
2022-11-20T12:30:11.848Z,99429.06
2022-11-20T12:32:56.115Z,99429.92
2022-11-20T12:35:54.567Z,99430.36
2022-11-20T12:38:29.912Z,99431.23
2022-11-20T12:41:43.103Z,99424.66
2022-11-20T12:44:41.304Z,99418.61
2022-11-20T12:47:22.580Z,99424.54
2022-11-20T12:50:02.527Z,99425.34
2022-11-20T12:52:57.122Z,99417.98
2022-11-20T12:55:34.711Z,99417.28
2022-11-20T12:58:23.934Z,99412.96
2022-11-20T13:01:32.606Z,99407.68
2022-11-20T13:04:10.471Z,99403.34
2022-11-20T13:06:37.805Z,99396.87
2022-11-20T13:09:11.667Z,99392.98
2022-11-20T13:12:02.104Z,99393.33
2022-11-20T13:14:37.905Z,99390.20
2022-11-20T13:17:29.035Z,99388.64
2022-11-20T13:20:00.843Z,99385.94
2022-11-20T13:22:44.141Z,99382.28
2022-11-20T13:25:22.208Z,99380.40
2022-11-20T13:27:49.358Z,99378.14
2022-11-20T13:30:19.323Z,99374.10
2022-11-20T13:33:00.061Z,99377.39
2022-11-20T13:35:28.146Z,99374.52
2022-11-20T13:38:10.975Z,99373.28
2022-11-20T13:40:50.295Z,99372.60
2022-11-20T13:43:32.658Z,99369.09
2022-11-20T13:46:04.529Z,99368.08
2022-11-20T13:48:47.145Z,99370.77
2022-11-20T13:51:29.847Z,99370.44
2022-11-20T13:54:18.369Z,99366.17
2022-11-20T13:57:08.443Z,99361.23
2022-11-20T13:59:56.913Z,99360.27
2022-11-20T14:02:26.999Z,99361.23
2022-11-20T14:04:56.985Z,99360.33
2022-11-20T14:07:32.270Z,99360.54
2022-11-20T14:09:58.883Z,99357.57
2022-11-20T14:12:31.315Z,99354.77
2022-11-20T14:14:58.673Z,99356.44
2022-11-20T14:17:32.312Z,99352.25
2022-11-20T14:20:06.238Z,99352.23
2022-11-20T14:22:32.834Z,99342.61
2022-11-20T14:25:15.760Z,99339.88
2022-11-20T14:27:44.739Z,99341.23
2022-11-20T14:30:26.965Z,99336.21
2022-11-20T14:32:56.635Z,99330.45
2022-11-20T14:35:41.009Z,99334.00
2022-11-20T14:38:13.729Z,99336.44
2022-11-20T14:40:40.044Z,99336.23
2022-11-20T14:43:24.060Z,99336.31
2022-11-20T14:45:59.643Z,99339.11
2022-11-20T14:48:50.478Z,99338.95
2022-11-20T14:51:41.741Z,99337.06
2022-11-20T14:54:16.691Z,99334.70
2022-11-20T14:56:58.068Z,99333.15
2022-11-20T14:59:26.323Z,99327.98
2022-11-20T15:02:19.191Z,99329.92
2022-11-20T15:04:51.121Z,99328.36
2022-11-20T15:07:35.980Z,99321.64
2022-11-20T15:10:04.275Z,99316.63
2022-11-20T15:12:32.696Z,99313.19
2022-11-20T15:15:01.468Z,99310.60
2022-11-20T15:17:27.735Z,99314.16
2022-11-20T15:19:55.083Z,99308.84
2022-11-20T15:22:21.354Z,99309.96
2022-11-20T15:24:47.684Z,99306.14
2022-11-20T15:27:14.012Z,99310.38
2022-11-20T15:29:41.784Z,99309.90
2022-11-20T15:32:13.387Z,99310.65
2022-11-20T15:34:40.075Z,99308.66
2022-11-20T15:37:06.383Z,99311.63
2022-11-20T15:39:32.703Z,99306.36
2022-11-20T15:41:59.018Z,99305.38
2022-11-20T15:44:25.511Z,99303.02
2022-11-20T15:46:52.386Z,99300.95
2022-11-20T15:49:23.884Z,99299.63
2022-11-20T15:51:52.781Z,99292.52
2022-11-20T15:54:22.408Z,99288.12
2022-11-20T15:56:52.494Z,99286.39
2022-11-20T15:59:19.378Z,99285.58
2022-11-20T16:01:45.863Z,99291.43
2022-11-20T16:04:14.768Z,99289.39
2022-11-20T16:06:41.110Z,99286.59
2022-11-20T16:09:07.448Z,99290.02
2022-11-20T16:11:36.656Z,99283.73
2022-11-20T16:14:20.497Z,99281.55
2022-11-20T16:16:47.657Z,99280.51
2022-11-20T16:19:15.789Z,99277.60
2022-11-20T16:21:42.897Z,99285.50
2022-11-20T16:24:12.968Z,99282.88
2022-11-20T16:26:39.901Z,99286.48
2022-11-20T16:29:07.212Z,99282.85
2022-11-20T16:31:34.431Z,99283.73
2022-11-20T16:34:08.573Z,99282.80
2022-11-20T16:36:41.404Z,99285.07
2022-11-20T16:39:09.491Z,99283.73
2022-11-20T16:41:36.434Z,99282.88
2022-11-20T16:44:07.817Z,99283.79
2022-11-20T16:46:34.143Z,99284.70
2022-11-20T16:49:03.995Z,99286.30
2022-11-20T16:51:33.412Z,99288.56
2022-11-20T16:54:08.429Z,99285.93
2022-11-20T16:56:35.517Z,99282.16
2022-11-20T16:59:02.673Z,99284.20
2022-11-20T17:01:30.445Z,99285.11
2022-11-20T17:03:59.805Z,99282.48
2022-11-20T17:06:29.197Z,99282.70
2022-11-20T17:08:56.763Z,99282.54
2022-11-20T17:11:23.922Z,99284.05
2022-11-20T17:13:50.274Z,99281.30
2022-11-20T17:16:19.391Z,99282.48
2022-11-20T17:18:46.241Z,99282.23
2022-11-20T17:21:12.722Z,99283.83
2022-11-20T17:23:40.811Z,99285.45
2022-11-20T17:26:10.022Z,99281.36
2022-11-20T17:28:37.975Z,99279.43
2022-11-20T17:31:10.615Z,99283.67
2022-11-20T17:33:38.689Z,99281.59
2022-11-20T17:36:07.257Z,99277.75
2022-11-20T17:38:34.343Z,99280.67
2022-11-20T17:41:09.171Z,99275.67
2022-11-20T17:43:36.512Z,99275.55
2022-11-20T17:46:12.657Z,99276.14
2022-11-20T17:48:43.540Z,99275.94
2022-11-20T17:51:12.567Z,99272.87
2022-11-20T17:53:41.525Z,99271.00
2022-11-20T17:56:23.851Z,99269.23
2022-11-20T17:58:50.331Z,99267.34
2022-11-20T18:01:17.961Z,99270.20
2022-11-20T18:03:45.176Z,99271.91
2022-11-20T18:06:14.758Z,99268.69
2022-11-20T18:08:41.190Z,99267.83
2022-11-20T18:11:13.591Z,99264.35
2022-11-20T18:14:03.566Z,99260.47
2022-11-20T18:16:31.934Z,99261.06
2022-11-20T18:18:59.692Z,99264.45
2022-11-20T18:21:27.553Z,99262.95
2022-11-20T18:23:55.324Z,99263.86
2022-11-20T18:26:22.959Z,99261.77
2022-11-20T18:28:50.464Z,99260.05
2022-11-20T18:31:17.061Z,99261.66
2022-11-20T18:33:43.454Z,99260.73
2022-11-20T18:36:17.742Z,99259.56
2022-11-20T18:38:46.157Z,99259.86
2022-11-20T18:41:30.528Z,99261.01
2022-11-20T18:44:13.116Z,99259.27
2022-11-20T18:46:39.491Z,99261.66
2022-11-20T18:49:05.733Z,99261.88
2022-11-20T18:51:33.469Z,99260.80
2022-11-20T18:53:59.807Z,99262.14
2022-11-20T18:56:26.071Z,99260.41
2022-11-20T18:58:52.344Z,99260.58
2022-11-20T19:01:18.744Z,99257.34
2022-11-20T19:03:46.068Z,99253.15
2022-11-20T19:06:13.586Z,99252.88
2022-11-20T19:08:40.117Z,99249.80
2022-11-20T19:11:07.800Z,99244.59
2022-11-20T19:13:35.296Z,99247.02
2022-11-20T19:16:12.279Z,99241.30
2022-11-20T19:18:38.525Z,99238.02
2022-11-20T19:21:16.910Z,99237.48
2022-11-20T19:23:43.273Z,99233.95
2022-11-20T19:26:09.795Z,99228.55
2022-11-20T19:28:36.915Z,99231.14
2022-11-20T19:31:04.895Z,99229.48
2022-11-20T19:33:32.452Z,99227.13
2022-11-20T19:36:16.903Z,99222.54
2022-11-20T19:38:48.960Z,99221.91
2022-11-20T19:41:18.814Z,99224.05
2022-11-20T19:43:49.238Z,99231.59
2022-11-20T19:46:20.274Z,99228.95
2022-11-20T19:48:46.898Z,99224.00
2022-11-20T19:51:16.479Z,99225.19
2022-11-20T19:53:42.842Z,99222.87
2022-11-20T19:56:10.310Z,99219.96
2022-11-20T19:58:37.756Z,99221.94
2022-11-20T20:01:09.189Z,99218.92
2022-11-20T20:03:35.887Z,99220.59
2022-11-20T20:06:08.916Z,99221.14
2022-11-20T20:08:36.381Z,99218.61
2022-11-20T20:11:10.957Z,99219.41
2022-11-20T20:13:37.874Z,99222.88
2022-11-20T20:16:09.157Z,99220.18
2022-11-20T20:18:35.692Z,99221.09
2022-11-20T20:21:05.075Z,99225.83
2022-11-20T20:23:32.259Z,99224.59
2022-11-20T20:25:59.039Z,99225.39
2022-11-20T20:28:26.285Z,99225.29
2022-11-20T20:30:53.364Z,99222.81
2022-11-20T20:33:20.346Z,99221.36
2022-11-20T20:35:48.170Z,99220.95
2022-11-20T20:38:15.148Z,99223.69
2022-11-20T20:40:51.668Z,99225.08
2022-11-20T20:43:17.982Z,99229.81
2022-11-20T20:45:48.614Z,99230.42
2022-11-20T20:48:16.457Z,99229.81
2022-11-20T20:50:52.005Z,99229.88
2022-11-20T20:53:18.662Z,99233.64
2022-11-20T20:56:02.196Z,99237.40
2022-11-20T20:58:29.798Z,99235.23
2022-11-20T21:01:07.532Z,99232.45
2022-11-20T21:03:35.198Z,99231.64
2022-11-20T21:06:02.574Z,99238.19
2022-11-20T21:08:29.355Z,99239.20
2022-11-20T21:11:13.374Z,99235.48
2022-11-20T21:13:42.122Z,99230.81
2022-11-20T21:16:10.048Z,99225.27
2022-11-20T21:18:36.383Z,99222.95
2022-11-20T21:21:24.184Z,99220.10
2022-11-20T21:23:52.562Z,99217.29
2022-11-20T21:26:20.250Z,99214.66
2022-11-20T21:28:47.078Z,99210.03
2022-11-20T21:31:18.468Z,99216.14
2022-11-20T21:33:46.386Z,99217.64
2022-11-20T21:36:15.293Z,99214.20
2022-11-20T21:38:41.889Z,99210.10
2022-11-20T21:41:10.267Z,99199.31
2022-11-20T21:43:37.049Z,99198.34
2022-11-20T21:46:09.481Z,99196.27
2022-11-20T21:48:38.874Z,99194.06
2022-11-20T21:51:08.198Z,99197.86
2022-11-20T21:53:35.039Z,99194.58
2022-11-20T21:56:03.497Z,99196.27
2022-11-20T21:58:30.783Z,99195.45
2022-11-20T22:00:57.458Z,99194.70
2022-11-20T22:03:24.131Z,99190.11
2022-11-20T22:05:57.243Z,99191.94
2022-11-20T22:08:25.276Z,99189.89
2022-11-20T22:10:59.521Z,99188.79
2022-11-20T22:13:42.943Z,99190.57
2022-11-20T22:16:09.813Z,99187.92
2022-11-20T22:18:40.826Z,99183.01
2022-11-20T22:21:07.561Z,99184.25
2022-11-20T22:23:34.621Z,99179.23
2022-11-20T22:26:03.729Z,99183.00
2022-11-20T22:28:30.250Z,99181.98
2022-11-20T22:30:58.825Z,99190.53
2022-11-20T22:33:30.176Z,99193.21
2022-11-20T22:36:08.212Z,99192.80
2022-11-20T22:38:39.288Z,99196.11
2022-11-20T22:41:10.302Z,99201.38
2022-11-20T22:43:38.355Z,99200.61
2022-11-20T22:46:10.798Z,99206.53
2022-11-20T22:48:39.452Z,99204.79
2022-11-20T22:51:08.589Z,99204.95
2022-11-20T22:53:35.405Z,99203.50
2022-11-20T22:56:02.513Z,99199.91
2022-11-20T22:58:30.460Z,99204.12
2022-11-20T23:01:14.652Z,99198.65
2022-11-20T23:03:43.660Z,99193.83
2022-11-20T23:06:11.168Z,99199.50
2022-11-20T23:08:38.918Z,99196.29
2022-11-20T23:11:08.734Z,99191.65
2022-11-20T23:13:35.734Z,99187.48
2022-11-20T23:16:03.320Z,99185.17
2022-11-20T23:18:29.980Z,99187.42
2022-11-20T23:20:56.326Z,99185.27
2022-11-20T23:23:22.822Z,99184.57
2022-11-20T23:25:49.122Z,99184.58
2022-11-20T23:28:15.341Z,99188.80
2022-11-20T23:30:41.585Z,99189.39
2022-11-20T23:33:07.870Z,99185.98
2022-11-20T23:35:38.903Z,99182.20
2022-11-20T23:38:05.342Z,99184.29
2022-11-20T23:40:31.622Z,99179.86
2022-11-20T23:43:13.888Z,99174.41
2022-11-20T23:45:41.293Z,99173.35
2022-11-20T23:48:07.677Z,99171.93
2022-11-20T23:50:34.407Z,99167.98
2022-11-20T23:53:00.718Z,99164.03
2022-11-20T23:55:27.578Z,99153.52
2022-11-20T23:57:53.839Z,99154.25
